SWA1278 KBUR-KSJC
Flight info
| Callsign | SWA1278 |
|---|---|
| Flight time | 0h 49m |
| Altitude | 36000 |
| Route | OROSZ2 COREZ MAKRS TROXX SILCN6 |
| Aircraft | B737/M-SADE2E3GIJ4RWZ/LB1D1 |
Departure
| Time | 2026-05-05 18:23 |
|---|---|
| Airport | Hollywood Burbank/Bob Hope Airport (KBUR) |
Arrival
| Time | 2026-05-05 19:13 |
|---|---|
| Airport | Norman Y. Mineta San Jose International Airport (KSJC) |
| Time | Latitude | Longitude | Altitude | Speed | Heading |
|---|---|---|---|---|---|
| 2026-05-05 17:57 | 34.19674 | -118.35107 | 694 ft | 0 kts | 180° |
| 2026-05-05 18:10 | 34.19682 | -118.35106 | 686 ft | 4 kts | 181° |
| 2026-05-05 18:10 | 34.19704 | -118.35106 | 687 ft | 4 kts | 186° |
| 2026-05-05 18:11 | 34.19717 | -118.35096 | 691 ft | 4 kts | 268° |
| 2026-05-05 18:11 | 34.19717 | -118.35071 | 689 ft | 1 kts | 271° |
| 2026-05-05 18:14 | 34.19717 | -118.35077 | 685 ft | 3 kts | 271° |
| 2026-05-05 18:15 | 34.19717 | -118.35098 | 690 ft | 2 kts | 272° |
| 2026-05-05 18:15 | 34.19718 | -118.35117 | 688 ft | 2 kts | 271° |
| 2026-05-05 18:15 | 34.19718 | -118.35137 | 690 ft | 2 kts | 270° |
| 2026-05-05 18:15 | 34.19718 | -118.35156 | 690 ft | 2 kts | 270° |
| 2026-05-05 18:16 | 34.19718 | -118.35175 | 693 ft | 2 kts | 270° |
| 2026-05-05 18:16 | 34.19718 | -118.35192 | 693 ft | 2 kts | 271° |
| 2026-05-05 18:16 | 34.19719 | -118.35218 | 695 ft | 5 kts | 271° |
| 2026-05-05 18:16 | 34.19719 | -118.35256 | 695 ft | 5 kts | 271° |
| 2026-05-05 18:17 | 34.19719 | -118.35293 | 695 ft | 4 kts | 270° |
| 2026-05-05 18:17 | 34.19720 | -118.35328 | 695 ft | 4 kts | 270° |
| 2026-05-05 18:17 | 34.19721 | -118.35364 | 694 ft | 5 kts | 273° |
| 2026-05-05 18:17 | 34.19732 | -118.35440 | 688 ft | 12 kts | 304° |
| 2026-05-05 18:18 | 34.19801 | -118.35511 | 690 ft | 13 kts | 334° |
| 2026-05-05 18:18 | 34.19887 | -118.35540 | 695 ft | 13 kts | 346° |
| 2026-05-05 18:18 | 34.19970 | -118.35562 | 695 ft | 12 kts | 346° |
| 2026-05-05 18:18 | 34.20051 | -118.35585 | 700 ft | 12 kts | 347° |
| 2026-05-05 18:19 | 34.20131 | -118.35607 | 698 ft | 12 kts | 347° |
| 2026-05-05 18:19 | 34.20209 | -118.35629 | 713 ft | 11 kts | 348° |
| 2026-05-05 18:19 | 34.20284 | -118.35649 | 716 ft | 11 kts | 347° |
| 2026-05-05 18:19 | 34.20365 | -118.35672 | 718 ft | 13 kts | 347° |
| 2026-05-05 18:20 | 34.20470 | -118.35700 | 722 ft | 20 kts | 348° |
| 2026-05-05 18:20 | 34.20635 | -118.35746 | 729 ft | 26 kts | 347° |
| 2026-05-05 18:20 | 34.20808 | -118.35793 | 742 ft | 24 kts | 347° |
| 2026-05-05 18:20 | 34.20966 | -118.35835 | 752 ft | 23 kts | 348° |
| 2026-05-05 18:21 | 34.21115 | -118.35881 | 765 ft | 20 kts | 344° |
| 2026-05-05 18:21 | 34.21155 | -118.35910 | 769 ft | 0 kts | 314° |
| 2026-05-05 18:22 | 34.21176 | -118.35939 | 771 ft | 9 kts | 311° |
| 2026-05-05 18:22 | 34.21212 | -118.36001 | 773 ft | 9 kts | 277° |
| 2026-05-05 18:22 | 34.21159 | -118.36025 | 771 ft | 13 kts | 168° |
| 2026-05-05 18:23 | 34.20840 | -118.35940 | 746 ft | 94 kts | 168° |
| 2026-05-05 18:23 | 34.19933 | -118.35675 | 851 ft | 158 kts | 165° |
| 2026-05-05 18:23 | 34.18850 | -118.35355 | 1890 ft | 158 kts | 179° |
| 2026-05-05 18:23 | 34.17828 | -118.35791 | 2554 ft | 178 kts | 219° |
| 2026-05-05 18:24 | 34.16812 | -118.36818 | 3192 ft | 196 kts | 219° |
| 2026-05-05 18:24 | 34.15770 | -118.37920 | 3740 ft | 201 kts | 224° |
| 2026-05-05 18:24 | 34.14743 | -118.39089 | 4009 ft | 206 kts | 225° |
| 2026-05-05 18:24 | 34.13682 | -118.40324 | 4016 ft | 225 kts | 225° |
| 2026-05-05 18:25 | 34.12440 | -118.41747 | 4045 ft | 261 kts | 224° |
| 2026-05-05 18:25 | 34.11558 | -118.42752 | 4021 ft | 264 kts | 224° |
| 2026-05-05 18:25 | 34.09869 | -118.44900 | 3997 ft | 265 kts | 242° |
| 2026-05-05 18:25 | 34.09490 | -118.47018 | 4020 ft | 261 kts | 277° |
| 2026-05-05 18:26 | 34.10190 | -118.48993 | 4037 ft | 261 kts | 312° |
| 2026-05-05 18:26 | 34.11627 | -118.50352 | 4021 ft | 264 kts | 321° |
| 2026-05-05 18:26 | 34.12963 | -118.51875 | 4005 ft | 264 kts | 322° |
| 2026-05-05 18:26 | 34.14587 | -118.52875 | 4041 ft | 261 kts | 338° |
| 2026-05-05 18:27 | 34.16279 | -118.53705 | 4021 ft | 263 kts | 338° |
| 2026-05-05 18:27 | 34.17950 | -118.54597 | 3982 ft | 262 kts | 336° |
| 2026-05-05 18:27 | 34.19619 | -118.55441 | 4004 ft | 257 kts | 337° |
| 2026-05-05 18:27 | 34.21261 | -118.56249 | 3986 ft | 252 kts | 336° |
| 2026-05-05 18:28 | 34.24497 | -118.57878 | 3993 ft | 259 kts | 336° |
| 2026-05-05 18:28 | 34.26162 | -118.58725 | 4385 ft | 261 kts | 336° |
| 2026-05-05 18:28 | 34.27829 | -118.59580 | 5597 ft | 257 kts | 336° |
| 2026-05-05 18:29 | 34.29479 | -118.60430 | 6805 ft | 258 kts | 336° |
| 2026-05-05 18:29 | 34.31147 | -118.61294 | 8011 ft | 264 kts | 336° |
| 2026-05-05 18:29 | 34.32859 | -118.62181 | 9258 ft | 272 kts | 336° |
| 2026-05-05 18:29 | 34.34605 | -118.63087 | 10548 ft | 275 kts | 336° |
| 2026-05-05 18:30 | 34.36438 | -118.64039 | 11210 ft | 302 kts | 336° |
| 2026-05-05 18:30 | 34.38470 | -118.65109 | 11683 ft | 330 kts | 335° |
| 2026-05-05 18:30 | 34.40587 | -118.66262 | 12801 ft | 336 kts | 335° |
| 2026-05-05 18:30 | 34.42728 | -118.67448 | 13972 ft | 341 kts | 333° |
| 2026-05-05 18:31 | 34.44822 | -118.68852 | 14968 ft | 347 kts | 329° |
| 2026-05-05 18:31 | 34.46917 | -118.70351 | 15988 ft | 352 kts | 329° |
| 2026-05-05 18:31 | 34.49038 | -118.71881 | 17011 ft | 357 kts | 329° |
| 2026-05-05 18:31 | 34.51191 | -118.73423 | 18060 ft | 362 kts | 329° |
| 2026-05-05 18:32 | 34.53138 | -118.74806 | 18835 ft | 368 kts | 329° |
| 2026-05-05 18:32 | 34.55353 | -118.76374 | 19781 ft | 370 kts | 330° |
| 2026-05-05 18:32 | 34.57599 | -118.77963 | 20618 ft | 377 kts | 330° |
| 2026-05-05 18:32 | 34.59868 | -118.79570 | 21690 ft | 374 kts | 331° |
| 2026-05-05 18:33 | 34.62052 | -118.81116 | 22772 ft | 374 kts | 331° |
| 2026-05-05 18:33 | 34.64310 | -118.82715 | 23571 ft | 379 kts | 332° |
| 2026-05-05 18:33 | 34.66590 | -118.84332 | 24212 ft | 386 kts | 330° |
| 2026-05-05 18:33 | 34.68922 | -118.85985 | 24788 ft | 394 kts | 331° |
| 2026-05-05 18:34 | 34.71299 | -118.87679 | 25499 ft | 397 kts | 331° |
| 2026-05-05 18:34 | 34.73680 | -118.89373 | 26059 ft | 404 kts | 333° |
| 2026-05-05 18:34 | 34.76098 | -118.91092 | 26711 ft | 407 kts | 332° |
| 2026-05-05 18:34 | 34.78556 | -118.92841 | 27336 ft | 411 kts | 332° |
| 2026-05-05 18:35 | 34.81026 | -118.94600 | 27954 ft | 416 kts | 332° |
| 2026-05-05 18:35 | 34.83533 | -118.96389 | 28576 ft | 418 kts | 333° |
| 2026-05-05 18:35 | 34.86038 | -118.98180 | 29357 ft | 418 kts | 333° |
| 2026-05-05 18:35 | 34.88530 | -118.99959 | 29860 ft | 424 kts | 333° |
| 2026-05-05 18:36 | 34.91061 | -119.01779 | 30275 ft | 429 kts | 333° |
| 2026-05-05 18:36 | 34.93640 | -119.03622 | 30826 ft | 429 kts | 333° |
| 2026-05-05 18:36 | 34.96245 | -119.05479 | 31437 ft | 429 kts | 333° |
| 2026-05-05 18:36 | 34.98785 | -119.07294 | 31973 ft | 430 kts | 333° |
| 2026-05-05 18:37 | 35.01375 | -119.09147 | 32438 ft | 432 kts | 333° |
| 2026-05-05 18:37 | 35.03966 | -119.11004 | 32945 ft | 433 kts | 333° |
| 2026-05-05 18:37 | 35.06572 | -119.12874 | 33493 ft | 433 kts | 332° |
| 2026-05-05 18:37 | 35.09169 | -119.14740 | 33981 ft | 434 kts | 332° |
| 2026-05-05 18:38 | 35.11782 | -119.16618 | 34395 ft | 435 kts | 332° |
| 2026-05-05 18:38 | 35.14392 | -119.18496 | 34848 ft | 435 kts | 331° |
| 2026-05-05 18:38 | 35.16986 | -119.20364 | 35329 ft | 433 kts | 332° |
| 2026-05-05 18:38 | 35.19584 | -119.22235 | 35806 ft | 432 kts | 332° |
| 2026-05-05 18:39 | 35.22182 | -119.24108 | 36056 ft | 437 kts | 331° |
| 2026-05-05 18:39 | 35.24818 | -119.26009 | 36014 ft | 440 kts | 331° |
| 2026-05-05 18:39 | 35.30038 | -119.29780 | 36035 ft | 431 kts | 331° |
| 2026-05-05 18:40 | 35.35155 | -119.33482 | 36042 ft | 431 kts | 332° |
| 2026-05-05 18:40 | 35.40317 | -119.37220 | 36060 ft | 432 kts | 332° |
| 2026-05-05 18:41 | 35.45509 | -119.40988 | 36060 ft | 434 kts | 332° |
| 2026-05-05 18:41 | 35.50718 | -119.44772 | 36064 ft | 435 kts | 332° |
| 2026-05-05 18:42 | 35.53230 | -119.46861 | 35989 ft | 441 kts | 321° |
| 2026-05-05 18:42 | 35.55199 | -119.49769 | 36077 ft | 447 kts | 306° |
| 2026-05-05 18:42 | 35.56522 | -119.53247 | 36021 ft | 456 kts | 290° |
| 2026-05-05 18:42 | 35.57161 | -119.57066 | 36161 ft | 455 kts | 283° |
| 2026-05-05 18:43 | 35.58216 | -119.64753 | 36082 ft | 457 kts | 283° |
| 2026-05-05 18:43 | 35.59295 | -119.72452 | 36064 ft | 456 kts | 284° |
| 2026-05-05 18:44 | 35.60416 | -119.80128 | 36057 ft | 456 kts | 284° |
| 2026-05-05 18:44 | 35.61538 | -119.87732 | 36064 ft | 455 kts | 284° |
| 2026-05-05 18:45 | 35.62661 | -119.95380 | 36055 ft | 454 kts | 285° |
| 2026-05-05 18:45 | 35.63779 | -120.03031 | 36057 ft | 456 kts | 285° |
| 2026-05-05 18:46 | 35.64897 | -120.10727 | 36082 ft | 457 kts | 284° |
| 2026-05-05 18:46 | 35.66011 | -120.18438 | 36068 ft | 459 kts | 285° |
| 2026-05-05 18:47 | 35.67125 | -120.26177 | 36086 ft | 460 kts | 285° |
| 2026-05-05 18:47 | 35.68813 | -120.33682 | 36102 ft | 450 kts | 301° |
| 2026-05-05 18:48 | 35.72175 | -120.40018 | 36091 ft | 437 kts | 317° |
| 2026-05-05 18:48 | 35.76227 | -120.45596 | 36099 ft | 438 kts | 318° |
| 2026-05-05 18:49 | 35.80312 | -120.51201 | 36101 ft | 440 kts | 318° |
| 2026-05-05 18:49 | 35.84376 | -120.56851 | 36092 ft | 442 kts | 317° |
| 2026-05-05 18:50 | 35.88443 | -120.62552 | 36075 ft | 443 kts | 318° |
| 2026-05-05 18:50 | 35.92509 | -120.68266 | 36086 ft | 444 kts | 318° |
| 2026-05-05 18:51 | 35.96583 | -120.74001 | 36086 ft | 445 kts | 318° |
| 2026-05-05 18:51 | 36.00596 | -120.79729 | 36084 ft | 445 kts | 318° |
| 2026-05-05 18:52 | 36.04695 | -120.85480 | 35350 ft | 449 kts | 319° |
| 2026-05-05 18:52 | 36.06749 | -120.88368 | 34813 ft | 444 kts | 320° |
| 2026-05-05 18:52 | 36.08793 | -120.91249 | 33945 ft | 448 kts | 321° |
| 2026-05-05 18:53 | 36.10178 | -120.93205 | 33449 ft | 446 kts | 321° |
| 2026-05-05 18:53 | 36.12214 | -120.96089 | 32584 ft | 446 kts | 320° |
| 2026-05-05 18:53 | 36.14224 | -120.98939 | 31803 ft | 444 kts | 320° |
| 2026-05-05 18:53 | 36.16250 | -121.01816 | 30957 ft | 443 kts | 319° |
| 2026-05-05 18:54 | 36.18271 | -121.04688 | 30072 ft | 443 kts | 319° |
| 2026-05-05 18:54 | 36.20289 | -121.07557 | 29005 ft | 442 kts | 319° |
| 2026-05-05 18:54 | 36.22273 | -121.10383 | 28020 ft | 439 kts | 318° |
| 2026-05-05 18:54 | 36.24254 | -121.13206 | 26975 ft | 439 kts | 318° |
| 2026-05-05 18:55 | 36.26268 | -121.16075 | 25862 ft | 441 kts | 317° |
| 2026-05-05 18:55 | 36.28264 | -121.18921 | 24759 ft | 444 kts | 317° |
| 2026-05-05 18:55 | 36.30272 | -121.21792 | 23974 ft | 436 kts | 317° |
| 2026-05-05 18:55 | 36.32206 | -121.24569 | 23824 ft | 412 kts | 316° |
| 2026-05-05 18:56 | 36.34016 | -121.27165 | 23519 ft | 395 kts | 316° |
| 2026-05-05 18:56 | 36.35779 | -121.29610 | 23277 ft | 374 kts | 322° |
| 2026-05-05 18:56 | 36.37753 | -121.31633 | 22684 ft | 363 kts | 329° |
| 2026-05-05 18:56 | 36.39771 | -121.33480 | 22038 ft | 361 kts | 329° |
| 2026-05-05 18:57 | 36.41781 | -121.35321 | 21515 ft | 358 kts | 328° |
| 2026-05-05 18:57 | 36.43767 | -121.37184 | 20894 ft | 356 kts | 327° |
| 2026-05-05 18:57 | 36.45714 | -121.39048 | 20330 ft | 351 kts | 327° |
| 2026-05-05 18:57 | 36.47628 | -121.40896 | 19761 ft | 346 kts | 327° |
| 2026-05-05 18:58 | 36.49529 | -121.42697 | 19178 ft | 340 kts | 330° |
| 2026-05-05 18:58 | 36.51629 | -121.43932 | 18730 ft | 331 kts | 344° |
| 2026-05-05 18:58 | 36.53803 | -121.44833 | 18237 ft | 332 kts | 345° |
| 2026-05-05 18:58 | 36.56000 | -121.45722 | 17784 ft | 331 kts | 345° |
| 2026-05-05 18:59 | 36.58167 | -121.46605 | 17296 ft | 331 kts | 344° |
| 2026-05-05 18:59 | 36.60328 | -121.47499 | 16854 ft | 330 kts | 344° |
| 2026-05-05 18:59 | 36.62481 | -121.48398 | 16348 ft | 331 kts | 344° |
| 2026-05-05 18:59 | 36.64655 | -121.49313 | 15891 ft | 328 kts | 344° |
| 2026-05-05 19:00 | 36.66789 | -121.50215 | 15441 ft | 321 kts | 344° |
| 2026-05-05 19:00 | 36.68888 | -121.51105 | 15005 ft | 318 kts | 344° |
| 2026-05-05 19:00 | 36.70974 | -121.51985 | 14583 ft | 317 kts | 344° |
| 2026-05-05 19:00 | 36.73044 | -121.52860 | 14151 ft | 316 kts | 344° |
| 2026-05-05 19:01 | 36.75043 | -121.53708 | 13717 ft | 316 kts | 344° |
| 2026-05-05 19:01 | 36.77116 | -121.54588 | 13280 ft | 313 kts | 344° |
| 2026-05-05 19:01 | 36.79177 | -121.55465 | 12835 ft | 312 kts | 344° |
| 2026-05-05 19:01 | 36.81229 | -121.56338 | 12399 ft | 311 kts | 344° |
| 2026-05-05 19:02 | 36.83269 | -121.57204 | 11983 ft | 309 kts | 344° |
| 2026-05-05 19:02 | 36.85281 | -121.58059 | 11557 ft | 308 kts | 344° |
| 2026-05-05 19:02 | 36.87266 | -121.58904 | 11144 ft | 306 kts | 344° |
| 2026-05-05 19:02 | 36.89267 | -121.59757 | 10741 ft | 300 kts | 344° |
| 2026-05-05 19:03 | 36.91184 | -121.60575 | 10355 ft | 293 kts | 345° |
| 2026-05-05 19:03 | 36.93057 | -121.61373 | 9977 ft | 287 kts | 345° |
| 2026-05-05 19:03 | 36.94879 | -121.62144 | 9940 ft | 269 kts | 345° |
| 2026-05-05 19:03 | 36.96627 | -121.62886 | 9264 ft | 274 kts | 344° |
| 2026-05-05 19:04 | 36.98412 | -121.63644 | 8822 ft | 270 kts | 344° |
| 2026-05-05 19:04 | 37.00172 | -121.64391 | 8476 ft | 265 kts | 343° |
| 2026-05-05 19:04 | 37.01907 | -121.65127 | 8080 ft | 262 kts | 343° |
| 2026-05-05 19:04 | 37.03630 | -121.65859 | 7730 ft | 261 kts | 343° |
| 2026-05-05 19:05 | 37.05341 | -121.66585 | 7380 ft | 260 kts | 343° |
| 2026-05-05 19:05 | 37.07039 | -121.67307 | 7020 ft | 259 kts | 342° |
| 2026-05-05 19:05 | 37.08721 | -121.68023 | 6684 ft | 258 kts | 342° |
| 2026-05-05 19:05 | 37.10340 | -121.68713 | 6343 ft | 258 kts | 342° |
| 2026-05-05 19:06 | 37.12021 | -121.69429 | 5966 ft | 257 kts | 341° |
| 2026-05-05 19:06 | 37.13619 | -121.70110 | 5630 ft | 256 kts | 341° |
| 2026-05-05 19:06 | 37.15212 | -121.70788 | 5293 ft | 252 kts | 341° |
| 2026-05-05 19:06 | 37.16795 | -121.71680 | 4896 ft | 250 kts | 324° |
| 2026-05-05 19:07 | 37.18091 | -121.73078 | 4643 ft | 242 kts | 319° |
| 2026-05-05 19:07 | 37.19355 | -121.74478 | 4256 ft | 241 kts | 319° |
| 2026-05-05 19:07 | 37.20585 | -121.75832 | 4032 ft | 226 kts | 319° |
| 2026-05-05 19:07 | 37.21713 | -121.77068 | 3900 ft | 206 kts | 318° |
| 2026-05-05 19:08 | 37.22736 | -121.78185 | 3775 ft | 186 kts | 318° |
| 2026-05-05 19:08 | 37.23672 | -121.79207 | 3627 ft | 170 kts | 319° |
| 2026-05-05 19:08 | 37.24523 | -121.80135 | 3496 ft | 156 kts | 318° |
| 2026-05-05 19:08 | 37.25309 | -121.80993 | 3259 ft | 147 kts | 317° |
| 2026-05-05 19:09 | 37.26048 | -121.81811 | 2997 ft | 138 kts | 318° |
| 2026-05-05 19:09 | 37.26740 | -121.82567 | 2832 ft | 125 kts | 317° |
| 2026-05-05 19:09 | 37.27405 | -121.83300 | 2627 ft | 128 kts | 317° |
| 2026-05-05 19:09 | 37.28066 | -121.84030 | 2418 ft | 126 kts | 317° |
| 2026-05-05 19:10 | 37.28741 | -121.84780 | 2211 ft | 132 kts | 318° |
| 2026-05-05 19:10 | 37.29431 | -121.85537 | 2030 ft | 132 kts | 317° |
| 2026-05-05 19:10 | 37.30123 | -121.86294 | 1817 ft | 133 kts | 318° |
| 2026-05-05 19:10 | 37.30817 | -121.87050 | 1598 ft | 131 kts | 318° |
| 2026-05-05 19:11 | 37.31496 | -121.87794 | 1384 ft | 129 kts | 319° |
| 2026-05-05 19:11 | 37.32173 | -121.88534 | 1168 ft | 128 kts | 319° |
| 2026-05-05 19:11 | 37.32841 | -121.89260 | 967 ft | 128 kts | 319° |
| 2026-05-05 19:11 | 37.33520 | -121.90002 | 755 ft | 130 kts | 319° |
| 2026-05-05 19:12 | 37.34201 | -121.90742 | 558 ft | 129 kts | 319° |
| 2026-05-05 19:12 | 37.34874 | -121.91467 | 333 ft | 124 kts | 319° |
| 2026-05-05 19:12 | 37.35531 | -121.92181 | 134 ft | 125 kts | 319° |
| 2026-05-05 19:12 | 37.36153 | -121.92860 | 62 ft | 103 kts | 317° |
| 2026-05-05 19:13 | 37.36555 | -121.93305 | 53 ft | 46 kts | 318° |
| 2026-05-05 19:13 | 37.36754 | -121.93375 | 61 ft | 20 kts | 44° |
| 2026-05-05 19:13 | 37.36811 | -121.93297 | 58 ft | 12 kts | 47° |
| 2026-05-05 19:13 | 37.36864 | -121.93220 | 60 ft | 12 kts | 55° |
| 2026-05-05 19:14 | 37.36840 | -121.93135 | 61 ft | 12 kts | 137° |
| 2026-05-05 19:14 | 37.36778 | -121.93067 | 57 ft | 14 kts | 139° |
| 2026-05-05 19:14 | 37.36695 | -121.92972 | 61 ft | 14 kts | 128° |
| 2026-05-05 19:14 | 37.36677 | -121.92859 | 55 ft | 13 kts | 128° |
| 2026-05-05 19:15 | 37.36608 | -121.92783 | 56 ft | 13 kts | 139° |
| 2026-05-05 19:15 | 37.36552 | -121.92720 | 59 ft | 7 kts | 136° |
| 2026-05-05 19:15 | 37.36505 | -121.92668 | 57 ft | 13 kts | 139° |
| 2026-05-05 19:15 | 37.36472 | -121.92630 | 54 ft | 0 kts | 136° |
| 2026-05-05 19:16 | 37.36469 | -121.92628 | 55 ft | 1 kts | 136° |
| 2026-05-05 19:16 | 37.36454 | -121.92599 | 59 ft | 5 kts | 87° |
| 2026-05-05 19:16 | 37.36474 | -121.92562 | 54 ft | 5 kts | 50° |
| 2026-05-05 19:16 | 37.36495 | -121.92531 | 59 ft | 0 kts | 48° |